Time;durP1;ratioP1;P1;durP2;ratioP2;P2;SDS_P1;SDS_P2;PMS_P1;PMS_P2;Temp;Humidity;BMP_temperature;BMP_pressure;BME280_temperature;BME280_humidity;BME280_pressure;Samples;Min_cycle;Max_cycle;Signal;HPM_P1;HPM_P2
2022/09/07 00:01:13;;;;;;;3.55;2.08;;;;;;;9.33;57.65;99935.72;4770286;30;20062;-79
2022/09/07 00:03:39;;;;;;;4.70;1.90;;;;;;;9.28;57.77;99927.94;4743032;30;20569;-79
2022/09/07 00:06:08;;;;;;;3.75;2.38;;;;;;;9.36;58.03;99940.06;4772179;30;20043;-78
2022/09/07 00:08:35;;;;;;;2.63;2.10;;;;;;;9.38;59.05;99940.91;4734647;30;20100;-78
2022/09/07 00:11:05;;;;;;;3.15;1.90;;;;;;;9.38;58.95;99936.56;4771445;30;20058;-76
2022/09/07 00:13:34;;;;;;;4.15;2.45;;;;;;;9.35;59.35;99928.78;4755589;30;20621;-76
2022/09/07 00:16:10;;;;;;;3.22;2.30;;;;;;;9.37;59.07;99916.66;4761217;30;20101;-77
2022/09/07 00:18:36;;;;;;;3.03;2.20;;;;;;;9.39;59.33;99920.13;4771967;29;20051;-77
2022/09/07 00:21:08;;;;;;;7.65;2.20;;;;;;;9.31;59.34;99917.56;4757085;30;20537;-75
2022/09/07 00:23:36;;;;;;;2.67;1.92;;;;;;;9.15;59.41;99913.25;4779326;29;20078;-77
2022/09/07 00:26:14;;;;;;;4.07;2.28;;;;;;;9.11;59.70;99914.97;4776313;29;20059;-78
2022/09/07 00:28:41;;;;;;;2.38;1.98;;;;;;;9.02;59.88;99920.19;4775889;29;20411;-77
2022/09/07 00:31:16;;;;;;;3.30;2.30;;;;;;;8.88;60.09;99915.00;4774635;29;20453;-77
2022/09/07 00:33:43;;;;;;;4.60;2.30;;;;;;;8.85;60.53;99910.66;4758019;30;20063;-76
2022/09/07 00:36:10;;;;;;;5.13;2.55;;;;;;;8.82;60.42;99908.09;4772350;29;20053;-78
2022/09/07 00:38:37;;;;;;;5.40;2.45;;;;;;;8.80;60.46;99908.94;4777939;29;20051;-78
2022/09/07 00:41:03;;;;;;;4.70;2.53;;;;;;;8.74;60.83;99900.28;4776661;29;20043;-78
2022/09/07 00:43:40;;;;;;;3.58;2.70;;;;;;;8.81;60.92;99910.66;4762636;29;20147;-77
2022/09/07 00:46:13;;;;;;;5.90;2.85;;;;;;;8.76;61.09;99902.88;4762803;30;20047;-77
2022/09/07 00:49:03;;;;;;;3.15;2.33;;;;;;;8.80;61.08;99907.22;4770158;30;20059;-77
2022/09/07 00:51:37;;;;;;;4.22;2.40;;;;;;;8.72;60.88;99894.22;4752705;30;20087;-77
2022/09/07 00:54:07;;;;;;;4.68;2.38;;;;;;;8.74;61.29;99908.06;4775852;29;20415;-78
2022/09/07 00:56:37;;;;;;;7.10;2.90;;;;;;;8.58;61.18;99880.38;4777209;29;20124;-77
2022/09/07 00:59:04;;;;;;;4.50;2.53;;;;;;;8.67;61.75;99900.28;4777907;29;20142;-78
2022/09/07 01:01:32;;;;;;;3.78;2.53;;;;;;;8.53;61.75;99872.59;4761810;29;20443;-79
2022/09/07 01:04:00;;;;;;;5.53;2.33;;;;;;;8.56;61.99;99884.69;4778492;29;20051;-78
2022/09/07 01:06:37;;;;;;;6.90;2.95;;;;;;;8.54;62.21;99889.03;4778138;29;20039;-79
2022/09/07 01:09:19;;;;;;;5.15;2.40;;;;;;;8.54;61.69;99891.63;4777066;29;20867;-77
2022/09/07 01:11:49;;;;;;;4.63;2.53;;;;;;;8.42;61.98;99877.75;4760921;30;20134;-77
2022/09/07 01:14:26;;;;;;;3.78;2.50;;;;;;;8.48;62.04;99889.00;4756783;30;20123;-77
2022/09/07 01:17:16;;;;;;;5.97;2.90;;;;;;;8.41;61.96;99876.03;4771653;30;20119;-77
2022/09/07 01:20:24;;;;;;;6.00;2.78;;;;;;;8.43;62.38;99882.09;4762014;30;20055;-77
2022/09/07 01:23:19;;;;;;;7.20;2.47;;;;;;;8.39;62.42;99877.75;4774101;29;20047;-77
2022/09/07 01:26:24;;;;;;;6.28;2.83;;;;;;;8.35;62.48;99880.34;4776484;29;20104;-77
2022/09/07 01:29:17;;;;;;;4.25;2.60;;;;;;;8.25;62.54;99869.09;4759073;30;20043;-77
2022/09/07 01:32:04;;;;;;;5.55;2.88;;;;;;;8.27;62.84;99877.75;4747633;30;20518;-77
2022/09/07 01:34:31;;;;;;;5.13;2.70;;;;;;;8.25;62.66;99885.50;4761771;30;20162;-77
2022/09/07 01:37:06;;;;;;;7.13;2.60;;;;;;;8.21;63.02;99888.09;4769764;30;20051;-78
2022/09/07 01:40:07;;;;;;;5.20;2.58;;;;;;;8.17;63.12;99883.75;4788060;29;20068;-77
2022/09/07 01:42:50;;;;;;;6.18;2.92;;;;;;;8.18;63.27;99888.94;4785637;29;20123;-79
2022/09/07 01:45:21;;;;;;;6.05;2.80;;;;;;;8.14;63.70;99869.06;4744556;29;20503;-75
2022/09/07 01:47:53;;;;;;;6.87;3.27;;;;;;;8.18;63.65;99872.53;4775257;29;20111;-79
2022/09/07 01:50:43;;;;;;;6.15;2.80;;;;;;;8.22;63.44;99874.25;4757919;29;20071;-79
2022/09/07 01:53:31;;;;;;;4.63;3.00;;;;;;;8.21;63.64;99872.53;4773156;29;20143;-77
2022/09/07 01:56:03;;;;;;;5.88;2.80;;;;;;;8.20;63.57;99878.59;4761372;30;20048;-79
2022/09/07 01:58:54;;;;;;;4.97;3.00;;;;;;;8.18;63.77;99872.53;4742246;30;20055;-79
2022/09/07 02:01:20;;;;;;;5.90;2.90;;;;;;;8.19;63.99;99875.09;4771811;29;20109;-78
2022/09/07 02:03:52;;;;;;;4.85;3.30;;;;;;;8.21;63.70;99872.53;4758366;30;20548;-77
2022/09/07 02:07:19;;;;;;;5.00;2.63;;;;;;;8.21;63.73;99873.38;4774486;30;20075;-78
2022/09/07 02:09:59;;;;;;;6.28;2.90;;;;;;;8.14;63.93;99867.31;4687689;30;20458;-78
2022/09/07 02:12:39;;;;;;;3.88;2.80;;;;;;;8.08;63.77;99862.13;4744068;30;20064;-77
2022/09/07 02:15:20;;;;;;;6.22;2.80;;;;;;;8.10;63.85;99870.78;4773693;29;20047;-77
2022/09/07 02:17:53;;;;;;;5.07;2.78;;;;;;;8.08;64.02;99867.31;4748473;30;20039;-78
2022/09/07 02:20:28;;;;;;;4.40;2.83;;;;;;;7.99;63.94;99857.78;4759359;29;20051;-78
2022/09/07 02:22:59;;;;;;;4.90;2.80;;;;;;;8.02;64.02;99867.31;4773344;29;20047;-77
2022/09/07 02:25:31;;;;;;;3.67;2.70;;;;;;;7.65;64.30;99811.06;4760718;29;20108;-78
2022/09/07 02:28:07;;;;;;;4.07;2.75;;;;;;;7.95;63.82;99862.97;4758779;30;20194;-79
2022/09/07 02:30:34;;;;;;;8.00;2.90;;;;;;;7.78;64.15;99843.06;4757041;30;20123;-77
2022/09/07 02:33:00;;;;;;;3.80;2.50;;;;;;;7.78;63.95;99848.25;4746461;30;20524;-79
2022/09/07 02:35:26;;;;;;;6.30;2.85;;;;;;;7.75;64.18;99853.41;4757788;30;20566;-79
2022/09/07 02:37:52;;;;;;;5.15;2.67;;;;;;;7.77;64.48;99856.00;4773190;29;20051;-78
2022/09/07 02:40:19;;;;;;;6.05;2.50;;;;;;;7.74;64.76;99867.22;4778212;29;20051;-77
2022/09/07 02:42:46;;;;;;;8.25;2.80;;;;;;;7.72;64.79;99855.13;4756218;29;20420;-79
2022/09/07 02:45:14;;;;;;;8.13;2.83;;;;;;;7.71;65.07;99864.63;4743182;30;20073;-78
2022/09/07 02:48:09;;;;;;;6.22;3.15;;;;;;;7.70;64.75;99868.06;4756973;30;20043;-77
2022/09/07 02:51:01;;;;;;;4.63;3.08;;;;;;;7.69;64.83;99858.56;4742740;30;20043;-78
2022/09/07 02:53:40;;;;;;;4.75;2.72;;;;;;;7.71;64.86;99859.44;4730241;30;20466;-78
2022/09/07 02:56:23;;;;;;;5.07;3.03;;;;;;;7.52;65.14;99815.34;4764371;30;20085;-76
2022/09/07 02:59:13;;;;;;;4.28;2.80;;;;;;;7.76;64.96;99857.72;4738437;30;20561;-77
2022/09/07 03:01:43;;;;;;;4.97;2.58;;;;;;;7.67;65.36;99835.25;4778486;30;20063;-78
2022/09/07 03:04:18;;;;;;;6.93;2.85;;;;;;;7.83;65.10;99854.28;4785914;30;20385;-77
2022/09/07 03:06:54;;;;;;;7.63;2.72;;;;;;;7.82;65.17;99844.81;4753215;30;20067;-78
2022/09/07 03:09:26;;;;;;;4.32;2.80;;;;;;;7.82;64.98;99844.81;4764055;30;20835;-78
2022/09/07 03:11:52;;;;;;;4.82;2.75;;;;;;;7.82;65.07;99842.22;4764498;29;20097;-76
2022/09/07 03:14:23;;;;;;;5.35;2.97;;;;;;;7.83;64.92;99838.72;4777429;30;20843;-75
2022/09/07 03:16:51;;;;;;;6.95;2.97;;;;;;;7.78;65.19;99822.34;4788838;29;20055;-76
2022/09/07 03:19:17;;;;;;;4.70;2.95;;;;;;;7.92;65.21;99842.22;4777598;29;20069;-78
2022/09/07 03:21:44;;;;;;;6.03;3.33;;;;;;;7.91;65.33;99831.00;4775238;29;20542;-78
2022/09/07 03:24:10;;;;;;;6.80;3.35;;;;;;;7.90;65.44;99818.03;4758313;30;20146;-79
2022/09/07 03:26:45;;;;;;;5.70;2.90;;;;;;;7.99;65.19;99831.88;4746010;30;20059;-78
2022/09/07 03:29:12;;;;;;;;;;;;;;;8.03;65.35;99837.94;4759715;30;20043;-77
2022/09/07 03:31:37;;;;;;;6.43;2.95;;;;;;;8.06;65.26;99847.44;4773203;29;19960;-79
2022/09/07 03:34:03;;;;;;;6.82;3.50;;;;;;;7.91;65.13;99822.34;4756337;29;20082;-79
2022/09/07 03:36:31;;;;;;;6.55;3.30;;;;;;;8.02;64.93;99838.81;4771154;30;20574;-78
2022/09/07 03:39:05;;;;;;;4.55;2.70;;;;;;;8.07;65.14;99838.81;4772214;29;20072;-79
2022/09/07 03:41:32;;;;;;;5.60;3.00;;;;;;;8.04;64.86;99834.50;4771690;29;20051;-80
2022/09/07 03:44:06;;;;;;;6.40;3.20;;;;;;;8.09;64.98;99837.94;4775051;29;20110;-77
2022/09/07 03:46:33;;;;;;;4.35;2.35;;;;;;;8.12;65.14;99831.91;4777899;30;20336;-79
2022/09/07 03:48:59;;;;;;;5.10;2.70;;;;;;;8.12;65.18;99818.94;4774867;29;20055;-82
2022/09/07 03:51:25;;;;;;;3.42;2.33;;;;;;;8.01;64.85;99797.31;4772458;29;20106;-77
2022/09/07 03:53:51;;;;;;;6.63;3.08;;;;;;;8.17;65.02;99809.44;4772626;29;20648;-76
2022/09/07 03:56:24;;;;;;;4.40;2.72;;;;;;;8.22;65.17;99819.81;4771902;29;20051;-79
2022/09/07 03:58:52;;;;;;;4.70;2.67;;;;;;;8.26;65.02;99818.97;4757518;30;20047;-78
2022/09/07 04:01:21;;;;;;;4.13;2.58;;;;;;;8.30;64.79;99818.09;4774635;29;20063;-77
2022/09/07 04:03:48;;;;;;;4.45;2.97;;;;;;;8.33;64.96;99812.06;4773073;29;20067;-77
2022/09/07 04:06:16;;;;;;;6.43;3.08;;;;;;;8.35;64.82;99806.00;4741885;30;20579;-78
2022/09/07 04:08:42;;;;;;;5.90;2.58;;;;;;;8.35;65.06;99800.81;4783133;29;20051;-78
2022/09/07 04:11:13;;;;;;;4.80;2.80;;;;;;;8.49;64.48;99816.41;4774209;30;20051;-79
2022/09/07 04:13:39;;;;;;;4.57;2.55;;;;;;;8.62;64.71;99817.28;4758322;30;20047;-78
2022/09/07 04:16:12;;;;;;;6.05;2.83;;;;;;;8.71;64.71;99813.81;4774708;29;20146;-79
2022/09/07 04:18:39;;;;;;;5.28;3.00;;;;;;;8.72;64.38;99813.78;4747245;30;20127;-80
2022/09/07 04:21:05;;;;;;;5.20;2.72;;;;;;;8.83;64.47;99823.31;4759487;30;20055;-78
2022/09/07 04:23:31;;;;;;;7.28;2.75;;;;;;;8.81;64.22;99812.06;4763386;30;20059;-79
2022/09/07 04:25:57;;;;;;;5.28;2.92;;;;;;;8.73;64.29;99805.13;4768307;29;20673;-79
2022/09/07 04:28:24;;;;;;;4.72;2.97;;;;;;;8.73;64.42;99812.06;4751564;30;20133;-79
2022/09/07 04:30:50;;;;;;;3.60;2.40;;;;;;;8.65;64.03;99809.50;4743911;30;20501;-80
2022/09/07 04:33:17;;;;;;;4.45;2.95;;;;;;;8.66;64.18;99816.41;4744803;30;20051;-78
2022/09/07 04:35:43;;;;;;;5.85;3.10;;;;;;;8.64;64.16;99809.47;4752421;30;20512;-78
2022/09/07 04:38:14;;;;;;;5.78;3.00;;;;;;;8.60;64.35;99806.03;4773049;30;20059;-78
2022/09/07 04:40:41;;;;;;;4.15;3.00;;;;;;;8.58;64.34;99802.56;4800370;29;20138;-78
2022/09/07 04:43:08;;;;;;;5.50;2.80;;;;;;;8.61;64.21;99804.31;4766701;30;20518;-79
2022/09/07 04:45:38;;;;;;;3.60;2.50;;;;;;;8.56;64.27;99800.00;4724205;30;20097;-81
2022/09/07 04:48:07;;;;;;;5.30;2.45;;;;;;;8.60;64.32;99798.25;4778106;29;20104;-78
2022/09/07 04:50:33;;;;;;;3.45;2.22;;;;;;;8.29;64.43;99748.94;4786836;30;20043;-78
2022/09/07 04:52:59;;;;;;;6.40;2.92;;;;;;;8.85;64.34;99801.66;4760578;30;20052;-78
2022/09/07 04:55:25;;;;;;;5.55;2.58;;;;;;;9.24;64.30;99801.56;4735904;30;20044;-78
2022/09/07 04:57:52;;;;;;;6.97;2.60;;;;;;;9.88;64.54;99803.88;4754921;30;20047;-80
2022/09/07 05:00:18;;;;;;;4.97;2.28;;;;;;;10.54;63.87;99769.59;4752230;29;20043;-79
2022/09/07 05:02:45;;;;;;;5.53;2.40;;;;;;;11.99;63.15;99773.09;4748862;30;20063;-79
2022/09/07 05:05:11;;;;;;;3.70;2.15;;;;;;;13.99;61.61;99770.19;4778871;29;20043;-81
2022/09/07 05:07:37;;;;;;;5.70;2.40;;;;;;;15.99;58.24;99763.94;4760117;30;20062;-80
2022/09/07 05:10:04;;;;;;;8.88;2.45;;;;;;;17.59;54.08;99756.63;4772683;30;20134;-80
2022/09/07 05:12:31;;;;;;;3.33;2.65;;;;;;;19.06;51.14;99743.63;4769619;30;20044;-81
2022/09/07 05:14:57;;;;;;;6.43;2.60;;;;;;;20.34;47.40;99731.41;4771588;30;20471;-78
2022/09/07 05:17:23;;;;;;;5.28;2.38;;;;;;;21.83;45.02;99739.44;4761673;30;20066;-80
2022/09/07 05:19:49;;;;;;;2.78;2.22;;;;;;;21.99;41.65;99735.91;4756885;29;20039;-79
2022/09/07 05:22:16;;;;;;;3.60;2.75;;;;;;;21.92;40.52;99728.31;4781594;30;20130;-80
2022/09/07 05:24:45;;;;;;;3.53;2.45;;;;;;;22.61;38.66;99737.66;4773104;30;20423;-79
2022/09/07 05:27:11;;;;;;;4.70;2.80;;;;;;;22.99;36.97;99727.31;4777376;29;20090;-82
2022/09/07 05:29:37;;;;;;;4.05;2.30;;;;;;;22.90;36.27;99729.69;4765667;30;20046;-83
2022/09/07 05:32:03;;;;;;;4.13;2.30;;;;;;;22.45;36.08;99733.25;4773116;30;20047;-82
2022/09/07 05:34:29;;;;;;;4.93;2.28;;;;;;;23.17;35.15;99720.03;4760466;30;20502;-79
2022/09/07 05:36:56;;;;;;;4.63;2.30;;;;;;;23.83;34.15;99732.72;4748052;30;20145;-81
2022/09/07 05:39:25;;;;;;;5.43;2.65;;;;;;;23.74;33.00;99723.53;4777208;29;20419;-80
2022/09/07 05:41:52;;;;;;;2.75;2.42;;;;;;;23.96;32.77;99716.78;4756854;30;20048;-81
2022/09/07 05:44:19;;;;;;;4.00;2.67;;;;;;;23.16;32.56;99726.28;4764897;30;20075;-77
2022/09/07 05:46:45;;;;;;;3.80;2.30;;;;;;;22.51;33.12;99726.75;4757677;29;20062;-78
2022/09/07 05:49:11;;;;;;;2.83;2.20;;;;;;;24.21;33.29;99715.19;4774597;29;20496;-79
2022/09/07 05:51:37;;;;;;;3.85;2.38;;;;;;;26.08;30.54;99710.97;4758743;30;20062;-79
2022/09/07 05:54:04;;;;;;;3.88;2.35;;;;;;;27.08;29.20;99713.13;4759560;30;20054;-78
2022/09/07 05:56:34;;;;;;;4.35;2.40;;;;;;;26.74;27.56;99713.94;4731872;30;20070;-78
2022/09/07 05:59:00;;;;;;;4.43;2.30;;;;;;;25.92;28.85;99705.94;4762306;30;20050;-78
2022/09/07 06:01:31;;;;;;;6.97;2.28;;;;;;;25.23;29.35;99717.97;4748885;30;20312;-80
2022/09/07 06:03:57;;;;;;;4.75;2.65;;;;;;;25.95;29.12;99708.34;4773517;30;20055;-79
2022/09/07 06:06:23;;;;;;;3.55;2.55;;;;;;;26.56;28.75;99707.38;4762308;30;20047;-77
2022/09/07 06:08:51;;;;;;;3.40;2.30;;;;;;;27.00;27.71;99692.38;4759168;30;20062;-78
2022/09/07 06:11:21;;;;;;;5.75;2.58;;;;;;;26.97;26.69;99686.41;4773942;29;20075;-79
2022/09/07 06:13:47;;;;;;;3.17;2.65;;;;;;;27.06;26.69;99694.53;4750368;30;20408;-79
2022/09/07 06:16:14;;;;;;;4.50;2.72;;;;;;;27.02;26.36;99709.13;4761062;30;22147;-78
2022/09/07 06:18:43;;;;;;;3.38;2.28;;;;;;;26.49;26.91;99706.97;4772057;29;20061;-78
2022/09/07 06:21:13;;;;;;;4.82;2.40;;;;;;;25.33;27.61;99710.19;4773198;29;20055;-78
2022/09/07 06:23:41;;;;;;;3.17;2.60;;;;;;;23.86;27.96;99718.38;4747175;29;20104;-79
2022/09/07 06:26:08;;;;;;;3.17;2.72;;;;;;;22.61;29.67;99717.28;4760530;30;20043;-78
2022/09/07 06:28:36;;;;;;;3.70;2.83;;;;;;;21.88;30.68;99724.16;4774960;30;20047;-81
2022/09/07 06:31:05;;;;;;;4.25;3.08;;;;;;;21.27;31.83;99734.56;4757598;30;20040;-77
2022/09/07 06:33:31;;;;;;;5.20;3.08;;;;;;;20.92;32.43;99734.63;4773562;29;20100;-78
2022/09/07 06:35:59;;;;;;;5.00;2.60;;;;;;;20.48;32.89;99730.72;4757956;30;20107;-78
2022/09/07 06:38:29;;;;;;;5.55;2.47;;;;;;;19.88;33.52;99731.91;4774621;29;20609;-81
2022/09/07 06:41:08;;;;;;;3.37;2.30;;;;;;;19.17;34.19;99736.06;4741758;29;20040;-77
2022/09/07 06:43:34;;;;;;;10.10;2.50;;;;;;;18.77;35.37;99746.56;4771172;30;20907;-80
2022/09/07 06:46:00;;;;;;;4.03;2.55;;;;;;;19.44;35.04;99719.88;4772249;29;20062;-79
2022/09/07 06:48:27;;;;;;;6.80;2.45;;;;;;;19.72;35.45;99743.19;4774446;29;20047;-78
2022/09/07 06:51:11;;;;;;;4.00;2.63;;;;;;;20.56;34.61;99730.31;4757698;30;20105;-80
2022/09/07 06:53:37;;;;;;;3.03;2.20;;;;;;;21.86;34.08;99719.84;4777202;30;20039;-80
2022/09/07 06:56:08;;;;;;;3.75;2.20;;;;;;;22.36;32.53;99694.00;4775534;30;20048;-82
2022/09/07 06:58:35;;;;;;;3.97;2.15;;;;;;;22.67;31.82;99721.34;4759423;30;20050;-79
2022/09/07 07:01:08;;;;;;;2.55;2.20;;;;;;;24.66;30.62;99709.50;4779944;30;20068;-77
2022/09/07 07:03:40;;;;;;;3.22;1.90;;;;;;;27.13;27.87;99689.59;4779222;29;20062;-78
2022/09/07 07:06:08;;;;;;;4.72;2.22;;;;;;;28.18;26.95;99696.19;4749026;29;20052;-79
2022/09/07 07:08:40;;;;;;;2.60;2.40;;;;;;;29.97;25.25;99684.19;4759602;30;20072;-79
2022/09/07 07:11:14;;;;;;;3.85;2.50;;;;;;;29.87;24.32;99684.16;4791172;29;20066;-79
2022/09/07 07:13:42;;;;;;;3.05;2.30;;;;;;;29.54;23.97;99688.94;4778012;29;20046;-79
2022/09/07 07:16:21;;;;;;;6.35;2.40;;;;;;;29.81;23.99;99657.91;4746607;30;20079;-79
2022/09/07 07:18:51;;;;;;;2.63;2.33;;;;;;;29.94;22.71;99672.88;4759549;30;20679;-78
2022/09/07 07:21:18;;;;;;;3.65;2.17;;;;;;;29.88;22.74;99666.25;4771947;29;20051;-80
2022/09/07 07:23:50;;;;;;;2.65;2.25;;;;;;;28.58;23.08;99681.25;4764057;29;20043;-79
2022/09/07 07:26:20;;;;;;;5.32;2.72;;;;;;;26.98;24.13;99691.66;4760642;30;20052;-78
2022/09/07 07:28:50;;;;;;;4.60;2.45;;;;;;;25.39;25.70;99699.94;4773719;29;20112;-82
2022/09/07 07:31:19;;;;;;;3.47;2.40;;;;;;;24.20;26.63;99695.75;4743444;29;20050;-80
2022/09/07 07:33:46;;;;;;;6.82;2.78;;;;;;;23.43;27.57;99691.00;4756304;30;20042;-78
2022/09/07 07:36:19;;;;;;;4.28;2.22;;;;;;;22.53;28.38;99696.53;4771667;30;20084;-78
2022/09/07 07:38:48;;;;;;;3.53;2.28;;;;;;;21.90;29.48;99711.66;4770787;30;20134;-79
2022/09/07 07:41:16;;;;;;;3.58;2.10;;;;;;;21.20;30.07;99706.72;4761541;30;21529;-80
2022/09/07 07:43:42;;;;;;;3.90;2.35;;;;;;;20.22;30.87;99703.84;4771408;30;20055;-79
2022/09/07 07:46:12;;;;;;;3.28;2.10;;;;;;;19.42;32.27;99704.13;4757642;30;20543;-79
2022/09/07 07:48:38;;;;;;;2.83;2.20;;;;;;;18.73;33.38;99704.59;4760254;30;20134;-79
2022/09/07 07:51:06;;;;;;;5.85;2.60;;;;;;;18.80;34.92;99712.16;4770805;29;20571;-77
2022/09/07 07:53:35;;;;;;;3.90;2.30;;;;;;;19.53;33.68;99694.84;4760034;29;20554;-79
2022/09/07 07:56:03;;;;;;;5.40;2.10;;;;;;;20.79;32.70;99699.22;4742029;30;20047;-79
2022/09/07 07:58:30;;;;;;;3.15;2.60;;;;;;;21.38;31.75;99704.84;4762177;30;20059;-80
2022/09/07 08:01:05;;;;;;;3.55;2.78;;;;;;;22.55;31.36;99691.13;4773475;30;20064;-79
2022/09/07 08:03:34;;;;;;;3.88;2.05;;;;;;;23.66;30.08;99683.34;4757621;30;20396;-79
2022/09/07 08:06:10;;;;;;;6.05;2.47;;;;;;;23.87;29.03;99680.22;4756120;30;20046;-79
2022/09/07 08:08:36;;;;;;;3.42;2.15;;;;;;;24.75;28.92;99678.78;4772414;29;20527;-79
2022/09/07 08:11:11;;;;;;;2.58;2.10;;;;;;;25.76;27.67;99666.28;4749650;30;20054;-79
2022/09/07 08:13:41;;;;;;;5.35;1.83;;;;;;;25.92;26.64;99672.13;4770241;29;20590;-78
2022/09/07 08:16:08;;;;;;;2.08;1.90;;;;;;;25.72;26.51;99668.28;4753793;30;20052;-80
2022/09/07 08:18:36;;;;;;;2.42;1.88;;;;;;;25.98;26.20;99644.16;4755729;30;20529;-80
2022/09/07 08:21:04;;;;;;;3.13;2.22;;;;;;;25.85;25.45;99639.78;4771432;29;20048;-78
2022/09/07 08:23:31;;;;;;;2.47;1.80;;;;;;;25.41;25.56;99657.22;4765754;30;20188;-79
2022/09/07 08:25:58;;;;;;;2.90;1.77;;;;;;;24.39;26.26;99672.34;4782974;29;20062;-79
2022/09/07 08:28:30;;;;;;;4.18;2.30;;;;;;;23.96;27.33;99657.50;4739977;30;20116;-79
2022/09/07 08:30:57;;;;;;;5.43;1.98;;;;;;;24.58;26.81;99658.66;4772167;29;20138;-79
2022/09/07 08:33:24;;;;;;;3.15;2.40;;;;;;;25.04;26.80;99652.75;4772915;29;20123;-79
2022/09/07 08:36:11;;;;;;;3.30;1.80;;;;;;;25.38;26.23;99636.97;4772489;29;20039;-78
2022/09/07 08:38:38;;;;;;;2.17;1.30;;;;;;;24.26;26.49;99629.84;4772801;29;20047;-79
2022/09/07 08:41:41;;;;;;;2.65;1.45;;;;;;;23.72;26.87;99651.06;4772022;29;20150;-79
2022/09/07 08:44:28;;;;;;;2.38;1.58;;;;;;;23.69;27.23;99651.28;4775621;29;20058;-80
2022/09/07 08:47:36;;;;;;;2.33;1.40;;;;;;;23.29;27.36;99645.91;4777945;30;20051;-81
2022/09/07 08:50:21;;;;;;;2.25;1.52;;;;;;;22.44;27.98;99653.81;4733986;30;20546;-78
2022/09/07 08:53:11;;;;;;;3.30;1.67;;;;;;;22.14;28.94;99646.72;4760319;30;20189;-79
2022/09/07 08:55:37;;;;;;;2.22;1.50;;;;;;;22.62;28.33;99647.38;4775928;29;20568;-79
2022/09/07 08:58:09;;;;;;;5.22;1.70;;;;;;;23.72;28.12;99635.13;4758430;30;20064;-81
2022/09/07 09:00:35;;;;;;;4.18;1.60;;;;;;;24.89;26.49;99641.41;4759287;29;20058;-79
2022/09/07 09:03:02;;;;;;;2.25;1.40;;;;;;;25.08;25.83;99642.75;4760902;30;20051;-79
2022/09/07 09:05:43;;;;;;;1.30;1.20;;;;;;;24.21;26.41;99635.47;4751113;29;20047;-81
2022/09/07 09:08:21;;;;;;;2.80;1.58;;;;;;;23.07;26.91;99628.66;4776727;29;20047;-78
2022/09/07 09:10:59;;;;;;;2.03;1.60;;;;;;;22.26;27.98;99646.84;4774419;29;20048;-80
2022/09/07 09:13:40;;;;;;;2.80;1.52;;;;;;;21.75;28.30;99646.34;4777733;29;20142;-78
2022/09/07 09:16:15;;;;;;;2.88;1.42;;;;;;;20.72;28.98;99649.28;4756049;29;20636;-78
2022/09/07 09:19:09;;;;;;;1.55;1.45;;;;;;;20.27;30.06;99653.41;4758588;30;20117;-80
2022/09/07 09:21:35;;;;;;;4.30;1.42;;;;;;;20.69;30.39;99652.06;4743098;30;20051;-80
2022/09/07 09:24:14;;;;;;;3.58;1.40;;;;;;;21.94;29.75;99641.69;4751246;30;20071;-81
2022/09/07 09:26:44;;;;;;;2.42;1.27;;;;;;;23.29;28.05;99638.81;4776839;29;20047;-78
2022/09/07 09:29:16;;;;;;;3.47;1.50;;;;;;;23.30;27.68;99632.56;4743218;30;20047;-78
2022/09/07 09:31:42;;;;;;;2.05;1.40;;;;;;;22.70;27.51;99631.00;4744332;30;20035;-80
2022/09/07 09:34:12;;;;;;;3.33;1.50;;;;;;;22.40;28.14;99632.78;4776664;29;20393;-79
2022/09/07 09:36:47;;;;;;;2.67;1.60;;;;;;;22.05;27.88;99619.00;4773780;29;20047;-79
2022/09/07 09:39:33;;;;;;;1.67;1.45;;;;;;;21.58;28.22;99647.28;4758306;30;20150;-78
2022/09/07 09:42:10;;;;;;;5.90;1.27;;;;;;;20.92;28.79;99644.72;4774717;29;20055;-79
2022/09/07 09:44:37;;;;;;;1.55;1.30;;;;;;;20.13;29.42;99647.03;4773038;30;20509;-82
2022/09/07 09:47:03;;;;;;;7.68;1.48;;;;;;;19.53;29.82;99642.91;4772969;29;20110;-80
2022/09/07 09:49:36;;;;;;;4.93;1.60;;;;;;;19.32;30.26;99654.50;4743717;29;20070;-79
2022/09/07 09:52:04;;;;;;;2.38;1.60;;;;;;;19.21;30.54;99649.72;4766727;30;20043;-80
2022/09/07 09:54:43;;;;;;;4.47;1.73;;;;;;;19.04;30.83;99661.09;4768836;30;20542;-80
2022/09/07 09:57:36;;;;;;;1.73;1.52;;;;;;;18.93;30.89;99658.91;4774276;29;20744;-79
2022/09/07 10:00:03;;;;;;;2.55;1.63;;;;;;;18.54;31.77;99629.00;4732371;30;20120;-78
2022/09/07 10:02:38;;;;;;;3.22;1.35;;;;;;;18.32;32.03;99635.22;4763906;30;20070;-78
2022/09/07 10:05:40;;;;;;;2.25;1.60;;;;;;;17.99;32.36;99667.34;4775364;30;20074;-81
2022/09/07 10:08:18;;;;;;;2.00;1.50;;;;;;;17.95;32.57;99667.50;4705899;30;20053;-77
2022/09/07 10:11:01;;;;;;;2.60;1.80;;;;;;;17.80;32.76;99640.03;4766167;30;20144;-79
2022/09/07 10:13:35;;;;;;;3.65;1.60;;;;;;;17.83;32.95;99656.56;4772031;29;20390;-78
2022/09/07 10:16:10;;;;;;;3.35;1.45;;;;;;;18.06;33.30;99654.78;4762293;29;20638;-79
2022/09/07 10:18:56;;;;;;;3.70;1.60;;;;;;;18.92;32.87;99644.88;4774458;29;20137;-82
2022/09/07 10:21:28;;;;;;;5.07;1.60;;;;;;;19.45;31.52;99631.03;4758102;30;20486;-78
2022/09/07 10:24:06;;;;;;;3.17;1.77;;;;;;;20.04;31.28;99649.31;4761578;30;20052;-79
2022/09/07 10:26:37;;;;;;;3.22;1.65;;;;;;;20.51;30.95;99647.78;4773578;29;20051;-80
2022/09/07 10:29:12;;;;;;;2.53;1.90;;;;;;;20.72;29.77;99648.44;4763085;29;20070;-78
2022/09/07 10:31:58;;;;;;;2.33;1.80;;;;;;;20.76;30.03;99644.69;4745394;30;20123;-79
2022/09/07 10:34:48;;;;;;;4.70;1.60;;;;;;;20.87;29.84;99652.91;4753016;30;20044;-79
2022/09/07 10:37:56;;;;;;;1.90;1.70;;;;;;;20.29;30.04;99646.25;4766872;30;20043;-77
2022/09/07 10:40:28;;;;;;;3.30;2.08;;;;;;;20.61;30.13;99643.72;4755723;30;20048;-79
2022/09/07 10:43:09;;;;;;;2.88;1.75;;;;;;;20.56;29.48;99640.47;4777713;29;20055;-79
2022/09/07 10:46:02;;;;;;;3.55;2.05;;;;;;;19.87;29.94;99624.56;4758352;30;20047;-81
2022/09/07 10:48:53;;;;;;;3.72;2.40;;;;;;;19.42;30.88;99645.22;4759292;30;20377;-80
2022/09/07 10:51:47;;;;;;;1.90;1.77;;;;;;;19.10;31.35;99650.22;4758924;30;20101;-78
2022/09/07 10:54:19;;;;;;;2.47;1.50;;;;;;;18.84;31.45;99654.91;4747471;30;20499;-79
2022/09/07 10:57:01;;;;;;;;;;;;;;;18.40;32.03;99660.41;4745016;30;20048;-78
2022/09/07 10:59:45;;;;;;;1.73;1.20;;;;;;;17.85;32.79;99659.13;4772911;29;19930;-79
2022/09/07 11:02:14;;;;;;;2.88;1.20;;;;;;;17.36;33.44;99660.19;4765947;29;20078;-79
2022/09/07 11:04:50;;;;;;;3.20;1.17;;;;;;;17.01;34.01;99658.00;4787482;29;20051;-81
2022/09/07 11:07:40;;;;;;;1.40;1.10;;;;;;;16.69;34.79;99656.53;4770238;29;20052;-78
2022/09/07 11:10:16;;;;;;;1.92;1.23;;;;;;;16.60;34.96;99656.88;4782283;30;20101;-78
2022/09/07 11:12:44;;;;;;;2.40;1.40;;;;;;;16.23;36.17;99644.13;4763809;30;20199;-78
2022/09/07 11:15:28;;;;;;;1.20;1.10;;;;;;;15.91;36.61;99648.72;4757715;30;20511;-79
2022/09/07 11:17:58;;;;;;;2.63;1.80;;;;;;;15.61;37.13;99640.06;4772283;29;20439;-78
2022/09/07 11:20:30;;;;;;;3.25;1.50;;;;;;;15.42;37.68;99656.38;4784992;29;20044;-82
2022/09/07 11:23:08;;;;;;;3.67;1.60;;;;;;;15.10;38.18;99658.22;4756359;30;20155;-78
2022/09/07 11:25:51;;;;;;;1.70;1.45;;;;;;;14.70;39.15;99656.75;4760727;30;20234;-81
2022/09/07 11:28:24;;;;;;;2.22;1.40;;;;;;;14.40;40.25;99647.06;4756909;30;20156;-79
2022/09/07 11:30:57;;;;;;;3.40;1.83;;;;;;;14.13;41.13;99665.19;4778054;30;20046;-79
2022/09/07 11:33:34;;;;;;;2.53;1.67;;;;;;;13.99;42.29;99665.56;4762792;30;20054;-78
2022/09/07 11:36:15;;;;;;;2.92;1.70;;;;;;;13.62;43.40;99674.31;4770151;30;20070;-79
2022/09/07 11:39:02;;;;;;;3.22;2.38;;;;;;;13.35;44.67;99673.16;4773208;29;20200;-80
2022/09/07 11:41:32;;;;;;;4.38;2.45;;;;;;;13.06;45.07;99674.63;4773532;29;20512;-78
2022/09/07 11:44:05;;;;;;;4.28;2.40;;;;;;;12.96;46.16;99687.88;4764135;30;20226;-79
2022/09/07 11:46:31;;;;;;;;;;;;;;;12.83;46.89;99680.31;4772582;30;20047;-78
2022/09/07 11:48:58;;;;;;;3.10;2.20;;;;;;;12.73;47.42;99692.69;4775810;29;19982;-78
2022/09/07 11:51:50;;;;;;;4.85;2.83;;;;;;;12.65;48.01;99688.50;4755406;30;20038;-79
2022/09/07 11:54:28;;;;;;;6.22;2.65;;;;;;;12.56;48.74;99699.09;4756207;29;20050;-82
2022/09/07 11:57:18;;;;;;;5.03;2.63;;;;;;;12.49;49.87;99692.25;4757136;30;20178;-79
2022/09/07 11:59:53;;;;;;;6.05;2.28;;;;;;;12.24;50.36;99697.94;4725552;30;20474;-79
2022/09/07 12:02:43;;;;;;;4.55;1.92;;;;;;;12.00;51.68;99692.25;4783348;29;20063;-80
2022/09/07 12:05:28;;;;;;;5.00;2.40;;;;;;;11.84;52.54;99691.59;4771855;30;20055;-79